Lyndonville, VT

1:57 AM EST on February 23, 2018 (GMT -0500)
Lyndonville

Weather History for KCDA - September, 2013

Change the Weather History Date:

Saturday, September 21, 2013

  Actual Average (K1V4) Record (K1V4)
Temperature  
Mean Temperature 62 °F -  
Max Temperature 72 °F 65 °F 87 °F (1965)
Min Temperature 53 °F 44 °F 26 °F (1929)
Degree Days  
Heating Degree Days 2    
Growing Degree Days 12 (Base 50)    
Moisture  
Dew Point 52 °F    
Average Humidity 72    
Maximum Humidity 90    
Minimum Humidity 39    
Precipitation  
Precipitation 0.00 in - - ()
Sea Level Pressure  
Sea Level Pressure 29.83 in    
Wind  
Wind Speed 8 mph (South)    
Max Wind Speed 20 mph    
Max Gust Speed 31 mph    
Visibility 10 miles    
Events Rain    
Averages and records for this station are not official NWS values.
T = Trace of Precipitation, MM = Missing Value Source: NWS Daily Summary

Daily Weather History Graph

Daily Weather History Graph

Search for Another Location

Airport or City:

Trip Planner

Search our weather history database for the weather conditions in past years. The results will help you decide how hot, cold, wet, or windy it might be!

Date:

Astronomy

Sep. 21, 2013 Rise Set
Actual Time 6:34 AM EDT 6:47 PM EDT
Civil Twilight 6:05 AM EDT 7:16 PM EDT
Nautical Twilight 5:30 AM EDT 7:50 PM EDT
Astronomical Twilight 4:55 AM EDT 8:25 PM EDT
Moon 7:47 PM EDT (9/21) 8:56 AM EDT (9/21)
Length of Visible Light 13h 10m
Length of Day
12h 12m
Waning Gibbous, 94% of the Moon is Illuminated
Sep 21
Waning Gibbous
Sep 26
Last Quarter
Oct 4
New
Oct 11
First Quarter
Oct 18
Full

Hourly Weather History & Observations

Time (EDT) Temp. Dew Point Humidity Pressure Visibility Wind Dir Wind Speed Gust Speed Precip Events Conditions
12:15 AM 59.9 °F 51.8 °F 75% 29.98 in 10.0 mi SSE 4.6 mph - N/A   Clear
12:35 AM 59.7 °F 51.8 °F 75% 29.98 in 10.0 mi SSE 5.8 mph - N/A   Clear
12:55 AM 58.1 °F 51.8 °F 80% 29.98 in 10.0 mi SSE 5.8 mph - N/A   Clear
1:15 AM 58.3 °F 51.8 °F 79% 29.98 in 10.0 mi SSE 4.6 mph - N/A   Clear
1:35 AM 57.9 °F 51.8 °F 80% 29.98 in 10.0 mi South 5.8 mph - N/A   Clear
1:55 AM 57.2 °F 51.6 °F 82% 29.98 in 10.0 mi South 4.6 mph - N/A   Clear
2:15 AM 57.4 °F 51.8 °F 82% 29.98 in 10.0 mi South 5.8 mph - N/A   Clear
2:35 AM 57.0 °F 51.8 °F 83% 29.98 in 10.0 mi South 5.8 mph - N/A   Clear
2:55 AM 56.3 °F 51.4 °F 84% 29.98 in 10.0 mi South 4.6 mph - N/A   Clear
3:15 AM 57.2 °F 51.8 °F 82% 29.97 in 10.0 mi South 10.4 mph - N/A   Clear
3:35 AM 57.0 °F 51.8 °F 83% 29.97 in 10.0 mi South 9.2 mph - N/A   Clear
3:55 AM 56.7 °F 51.8 °F 84% 29.96 in 10.0 mi South 6.9 mph - N/A   Clear
4:15 AM 56.3 °F 51.8 °F 85% 29.96 in 10.0 mi South 5.8 mph - N/A   Clear
4:35 AM 55.4 °F 51.1 °F 85% 29.94 in 10.0 mi SSE 5.8 mph - N/A   Clear
4:55 AM 55.6 °F 51.4 °F 86% 29.93 in 10.0 mi SSE 9.2 mph - N/A   Clear
5:15 AM 53.6 °F 50.4 °F 89% 29.94 in 10.0 mi South 6.9 mph - N/A   Clear
5:35 AM 55.6 °F 51.3 °F 85% 29.93 in 10.0 mi South 5.8 mph - N/A   Clear
5:55 AM 55.4 °F 51.1 °F 85% 29.93 in 10.0 mi South 5.8 mph - N/A   Clear
6:15 AM 54.5 °F 50.9 °F 88% 29.93 in 10.0 mi South 5.8 mph - N/A   Clear
6:35 AM 54.5 °F 51.1 °F 88% 29.93 in 10.0 mi Calm Calm - N/A   Clear
6:55 AM 54.0 °F 50.9 °F 89% 29.93 in 7.0 mi Calm Calm - N/A   Clear
7:15 AM 53.8 °F 50.9 °F 90% 29.92 in 5.0 mi Calm Calm - N/A   Clear
7:35 AM 54.5 °F 51.3 °F 89% 29.93 in 7.0 mi South 4.6 mph - N/A   Clear
7:55 AM 55.2 °F 50.9 °F 85% 29.92 in 10.0 mi South 6.9 mph - N/A   Clear
8:15 AM 56.3 °F 51.1 °F 83% 29.91 in 10.0 mi South 11.5 mph - N/A   Clear
8:35 AM 56.3 °F 50.9 °F 82% 29.92 in 10.0 mi SSE 9.2 mph - N/A   Clear
8:55 AM 57.2 °F 51.8 °F 82% 29.91 in 10.0 mi SSE 8.1 mph - N/A   Scattered Clouds
9:15 AM 57.4 °F 51.6 °F 81% 29.90 in 10.0 mi SSE 9.2 mph - N/A   Mostly Cloudy
9:35 AM 57.2 °F 51.8 °F 82% 29.90 in 10.0 mi South 11.5 mph - N/A   Mostly Cloudy
9:55 AM 58.1 °F 52.0 °F 80% 29.90 in 10.0 mi South 15.0 mph 18.4 mph N/A   Mostly Cloudy
10:15 AM 58.1 °F 52.0 °F 80% 29.89 in 10.0 mi South 16.1 mph 19.6 mph N/A   Overcast
10:35 AM 58.6 °F 51.8 °F 78% 29.89 in 10.0 mi SSW 10.4 mph 16.1 mph N/A   Overcast
10:55 AM 59.9 °F 51.4 °F 74% 29.88 in 10.0 mi SSW 16.1 mph 20.7 mph N/A   Overcast
11:15 AM 62.8 °F 52.5 °F 69% 29.86 in 10.0 mi SSW 10.4 mph - N/A   Mostly Cloudy
11:35 AM 63.5 °F 51.8 °F 66% 29.85 in 10.0 mi South 11.5 mph - N/A   Mostly Cloudy
11:55 AM 65.7 °F 51.6 °F 60% 29.84 in 10.0 mi South 12.7 mph 18.4 mph N/A   Scattered Clouds
12:15 PM 66.7 °F 50.7 °F 56% 29.84 in 10.0 mi South 13.8 mph - N/A   Clear
12:35 PM 67.6 °F 49.8 °F 53% 29.83 in 10.0 mi SSE 12.7 mph 18.4 mph N/A   Clear
12:55 PM 69.3 °F 49.8 °F 50% 29.82 in 10.0 mi South 8.1 mph - N/A   Clear
1:15 PM 69.6 °F 47.8 °F 46% 29.80 in 10.0 mi SSE 11.5 mph 23.0 mph N/A   Clear
1:35 PM 70.3 °F 47.5 °F 44% 29.79 in 10.0 mi SSE 13.8 mph 20.7 mph N/A   Clear
1:55 PM 71.2 °F 46.4 °F 41% 29.79 in 10.0 mi South 12.7 mph 25.3 mph N/A   Clear
2:15 PM 71.4 °F 46.6 °F 41% 29.78 in 10.0 mi SSE 15.0 mph 25.3 mph N/A   Clear
2:35 PM 71.6 °F 45.7 °F 39% 29.77 in 10.0 mi South 13.8 mph 25.3 mph N/A   Clear
2:55 PM 71.6 °F 45.3 °F 39% 29.76 in 10.0 mi South 18.4 mph 31.1 mph N/A   Clear
3:15 PM 71.8 °F 46.2 °F 40% 29.76 in 10.0 mi South 16.1 mph 31.1 mph N/A   Clear
3:35 PM 72.0 °F 47.8 °F 42% 29.75 in 10.0 mi South 13.8 mph 27.6 mph N/A   Clear
3:55 PM 71.8 °F 49.5 °F 45% 29.73 in 10.0 mi SSE 18.4 mph 31.1 mph N/A   Clear
4:15 PM 71.2 °F 49.5 °F 46% 29.74 in 10.0 mi South 19.6 mph 31.1 mph N/A   Clear
4:35 PM 70.9 °F 50.0 °F 48% 29.74 in 10.0 mi South 16.1 mph 28.8 mph N/A   Clear
4:55 PM 70.3 °F 50.9 °F 50% 29.74 in 10.0 mi South 17.3 mph 24.2 mph N/A   Clear
5:15 PM 70.0 °F 51.8 °F 52% 29.74 in 10.0 mi South 12.7 mph 24.2 mph N/A   Scattered Clouds
5:35 PM 69.4 °F 52.2 °F 54% 29.73 in 10.0 mi SSE 10.4 mph 20.7 mph N/A   Scattered Clouds
5:55 PM 68.9 °F 54.0 °F 59% 29.73 in 10.0 mi South 13.8 mph 24.2 mph N/A   Mostly Cloudy
6:15 PM 65.3 °F 57.2 °F 75% 29.73 in 7.0 mi South 13.8 mph 27.6 mph N/A Rain Rain
6:35 PM 64.8 °F 57.4 °F 77% 29.73 in 10.0 mi South 11.5 mph 16.1 mph N/A   Overcast
6:55 PM 63.5 °F 58.1 °F 83% 29.72 in 7.0 mi SSE 10.4 mph 20.7 mph N/A Rain Light Rain
7:15 PM 63.7 °F 58.1 °F 82% 29.72 in 10.0 mi South 8.1 mph 18.4 mph N/A   Overcast
7:35 PM 64.0 °F 58.1 °F 81% 29.72 in 10.0 mi South 9.2 mph 17.3 mph N/A   Overcast
7:55 PM 64.4 °F 58.3 °F 80% 29.73 in 10.0 mi South 10.4 mph 17.3 mph N/A   Overcast
8:15 PM 64.4 °F 58.5 °F 81% 29.73 in 10.0 mi South 13.8 mph 18.4 mph N/A   Overcast
8:35 PM 64.4 °F 58.5 °F 81% 29.72 in 10.0 mi South 12.7 mph - N/A   Overcast
8:55 PM 64.0 °F 58.5 °F 82% 29.71 in 10.0 mi South 11.5 mph 17.3 mph N/A   Mostly Cloudy
9:15 PM 64.0 °F 58.3 °F 82% 29.71 in 10.0 mi South 6.9 mph - N/A   Mostly Cloudy
9:35 PM 64.0 °F 58.1 °F 81% 29.70 in 10.0 mi South 8.1 mph - N/A   Mostly Cloudy
9:55 PM 64.8 °F 58.1 °F 79% 29.70 in 10.0 mi South 9.2 mph - N/A   Overcast
10:15 PM 65.3 °F 57.2 °F 75% 29.70 in 10.0 mi South 9.2 mph 17.3 mph N/A   Overcast
10:35 PM 65.3 °F 57.2 °F 75% 29.69 in 10.0 mi South 8.1 mph 16.1 mph N/A   Overcast
10:55 PM 65.3 °F 56.8 °F 74% 29.68 in 10.0 mi South 12.7 mph - N/A   Scattered Clouds
11:15 PM 65.1 °F 56.8 °F 75% 29.66 in 10.0 mi South 10.4 mph - N/A Rain Light Rain
11:35 PM 64.8 °F 57.2 °F 76% 29.66 in 10.0 mi South 10.4 mph 17.3 mph N/A Rain Light Rain
11:55 PM 64.9 °F 56.7 °F 74% 29.65 in 10.0 mi South 11.5 mph 17.3 mph N/A Rain Rain